createdAt,value
2023-01-22T00:02:36.741Z,101101.59
2023-01-22T00:07:38.206Z,101098.03
2023-01-22T00:12:39.635Z,101077.06
2023-01-22T00:17:40.984Z,101093.47
2023-01-22T00:22:42.387Z,101076.38
2023-01-22T00:27:43.751Z,101091.25
2023-01-22T00:32:45.916Z,101071.28
2023-01-22T00:37:49.458Z,101082.28
2023-01-22T00:42:51.037Z,101091.53
2023-01-22T00:47:52.364Z,101072.84
2023-01-22T00:52:53.871Z,101073.59
2023-01-22T00:57:55.253Z,101069.94
2023-01-22T01:03:15.093Z,101054.66
2023-01-22T01:08:16.512Z,101086.19
2023-01-22T01:13:17.851Z,101069.19
2023-01-22T01:18:20.262Z,101066.22
2023-01-22T01:23:22.957Z,101075.09
2023-01-22T01:28:24.804Z,101081.03
2023-01-22T01:33:26.176Z,101066.25
2023-01-22T01:38:27.679Z,101081.91
2023-01-22T01:43:29.353Z,101057.59
2023-01-22T01:48:37.908Z,101077.41
2023-01-22T01:53:41.936Z,101073.66
2023-01-22T01:58:46.038Z,101057.16
2023-01-22T02:03:47.606Z,101046.50
2023-01-22T02:08:50.761Z,101073.94
2023-01-22T02:14:08.301Z,101066.53
2023-01-22T02:19:09.942Z,101066.16
2023-01-22T02:24:17.078Z,101056.41
2023-01-22T02:29:18.492Z,101061.13
2023-01-22T02:34:24.285Z,101060.91
2023-01-22T02:39:25.932Z,101077.03
2023-01-22T02:44:27.323Z,101056.91
2023-01-22T02:49:28.712Z,101067.16
2023-01-22T02:54:30.095Z,101075.03
2023-01-22T02:59:31.483Z,101062.50
2023-01-22T03:04:32.947Z,101080.03
2023-01-22T03:09:34.321Z,101060.50
2023-01-22T03:14:54.458Z,101055.66
2023-01-22T03:20:14.569Z,101060.75
2023-01-22T03:25:16.147Z,101052.41
2023-01-22T03:30:18.063Z,101053.94
2023-01-22T03:35:19.718Z,101071.13
2023-01-22T03:40:21.143Z,101073.59
2023-01-22T03:45:22.522Z,101051.78
2023-01-22T03:50:23.999Z,101057.25
2023-01-22T03:55:26.106Z,101065.03
2023-01-22T04:00:27.585Z,101063.09
2023-01-22T04:05:28.939Z,101061.50
2023-01-22T04:10:30.285Z,101072.75
2023-01-22T04:15:31.639Z,101060.91
2023-01-22T04:20:33.069Z,101098.81
2023-01-22T04:25:35.172Z,101081.22
2023-01-22T04:30:37.505Z,101076.81
2023-01-22T04:35:39.568Z,101094.34
2023-01-22T04:40:40.904Z,101091.53
2023-01-22T04:45:42.286Z,101082.84
2023-01-22T04:50:45.566Z,101074.34
2023-01-22T04:55:47.740Z,101084.00
2023-01-22T05:00:49.153Z,101075.31
2023-01-22T05:05:50.824Z,101078.53
2023-01-22T05:10:52.226Z,101085.41
2023-01-22T05:15:53.632Z,101078.44
2023-01-22T05:20:55.064Z,101099.72
2023-01-22T05:25:56.434Z,101103.09
2023-01-22T05:30:57.895Z,101105.13
2023-01-22T05:36:01.084Z,101090.38
2023-01-22T05:41:02.473Z,101077.28
2023-01-22T05:46:04.251Z,101103.13
2023-01-22T05:51:07.543Z,101099.81
2023-01-22T05:56:09.805Z,101092.41
2023-01-22T06:01:11.384Z,101107.88
2023-01-22T06:06:14.348Z,101108.97
2023-01-22T06:11:17.067Z,101100.41
2023-01-22T06:16:18.551Z,101128.09
2023-01-22T06:21:19.951Z,101118.38
2023-01-22T06:26:21.268Z,101117.53
2023-01-22T06:31:22.782Z,101123.16
2023-01-22T06:36:24.274Z,101130.56
2023-01-22T06:41:28.059Z,101137.72
2023-01-22T06:46:29.725Z,101128.81
2023-01-22T06:51:31.768Z,101140.94
2023-01-22T06:56:33.420Z,101152.81
2023-01-22T07:01:35.085Z,101161.66
2023-01-22T07:06:36.500Z,101165.72
2023-01-22T07:11:37.934Z,101151.22
2023-01-22T07:16:39.393Z,101159.34
2023-01-22T07:21:40.739Z,101175.31
2023-01-22T07:26:43.531Z,101172.22
2023-01-22T07:31:49.660Z,101185.94
2023-01-22T07:36:51.325Z,101179.06
2023-01-22T07:41:52.628Z,101183.00
2023-01-22T07:46:54.114Z,101201.72
2023-01-22T07:51:55.651Z,101206.88
2023-01-22T07:56:57.007Z,101199.91
2023-01-22T08:01:58.353Z,101195.72
2023-01-22T08:06:59.677Z,101186.06
2023-01-22T08:12:00.997Z,101198.16
2023-01-22T08:17:02.384Z,101224.09
2023-01-22T08:22:04.605Z,101227.81
2023-01-22T08:27:05.936Z,101236.91
2023-01-22T08:32:07.416Z,101241.97
2023-01-22T08:37:09.136Z,101210.22
2023-01-22T08:42:10.545Z,101249.44
2023-01-22T08:47:11.988Z,101247.19
2023-01-22T08:52:13.338Z,101246.25
2023-01-22T08:57:15.732Z,101239.69
2023-01-22T09:02:17.377Z,101257.84
2023-01-22T09:07:19.117Z,101258.56
2023-01-22T09:12:20.711Z,101266.19
2023-01-22T09:17:22.188Z,101254.38
2023-01-22T09:22:23.533Z,101281.31
2023-01-22T09:27:24.903Z,101286.31
2023-01-22T09:32:26.282Z,101279.31
2023-01-22T09:37:27.897Z,101272.66
2023-01-22T09:42:34.819Z,101281.72
2023-01-22T09:47:44.326Z,101291.13
2023-01-22T09:52:46.139Z,101292.41
2023-01-22T09:57:50.371Z,101293.81
2023-01-22T10:03:00.462Z,101286.28
2023-01-22T10:08:07.374Z,101292.28
2023-01-22T10:13:18.725Z,101289.13
2023-01-22T10:18:32.791Z,101294.34
2023-01-22T10:23:34.577Z,101295.25
2023-01-22T10:28:36.015Z,101290.44
2023-01-22T10:33:38.881Z,101292.50
2023-01-22T10:38:40.228Z,101279.63
2023-01-22T10:43:41.628Z,101293.63
2023-01-22T10:48:43.137Z,101297.00
2023-01-22T10:53:53.993Z,101289.53
2023-01-22T10:58:57.078Z,101292.50
2023-01-22T11:03:59.122Z,101296.53
2023-01-22T11:09:12.585Z,101304.16
2023-01-22T11:14:22.265Z,101306.00
2023-01-22T11:19:36.820Z,101289.41
2023-01-22T11:24:47.038Z,101302.16
2023-01-22T11:30:14.393Z,101306.84
2023-01-22T11:35:41.706Z,101298.09
2023-01-22T11:40:55.396Z,101302.72
2023-01-22T11:46:38.538Z,101296.41
2023-01-22T11:51:55.007Z,101300.56
2023-01-22T11:57:28.565Z,101251.38
2023-01-22T12:02:39.116Z,101288.25
2023-01-22T12:07:57.376Z,101270.97
2023-01-22T12:13:23.999Z,101273.72
2023-01-22T12:18:57.473Z,101224.00
2023-01-22T12:24:20.315Z,101268.44
2023-01-22T12:29:29.243Z,101275.06
2023-01-22T12:34:55.089Z,101270.41
2023-01-22T12:40:19.809Z,101269.19
2023-01-22T12:45:41.509Z,101274.59
2023-01-22T12:50:54.591Z,101271.34
2023-01-22T12:56:00.910Z,101236.91
2023-01-22T13:01:05.082Z,101265.88
2023-01-22T13:06:29.620Z,101283.41
2023-01-22T13:11:32.725Z,101281.47
2023-01-22T13:16:36.658Z,101284.94
2023-01-22T13:21:38.088Z,101290.53
2023-01-22T13:26:39.518Z,101297.78
2023-01-22T13:31:40.999Z,101278.84
2023-01-22T13:36:47.825Z,101279.94
2023-01-22T13:41:51.787Z,101308.41
2023-01-22T13:46:53.925Z,101312.28
2023-01-22T13:51:57.645Z,101303.97
2023-01-22T13:56:59.127Z,101305.34
2023-01-22T14:02:20.213Z,101305.94
2023-01-22T14:07:26.020Z,101312.59
2023-01-22T14:12:29.537Z,101303.84
2023-01-22T14:17:34.182Z,101317.50
2023-01-22T14:22:35.711Z,101314.16
2023-01-22T14:27:46.048Z,101319.56
2023-01-22T14:32:47.555Z,101321.41
2023-01-22T14:37:51.205Z,101328.34
2023-01-22T14:42:53.177Z,101340.28
2023-01-22T14:47:54.624Z,101339.09
2023-01-22T14:52:56.012Z,101333.03
2023-01-22T14:57:57.747Z,101332.19
2023-01-22T15:02:59.628Z,101315.75
2023-01-22T15:08:01.482Z,101342.50
2023-01-22T15:13:02.984Z,101330.91
2023-01-22T15:18:04.404Z,101342.19
2023-01-22T15:23:05.849Z,101336.56
2023-01-22T15:28:07.325Z,101354.97
2023-01-22T15:33:08.662Z,101368.13
2023-01-22T15:38:09.978Z,101371.72
2023-01-22T15:43:11.274Z,101362.63
2023-01-22T15:48:13.843Z,101355.84
2023-01-22T15:53:15.260Z,101354.34
2023-01-22T15:58:16.592Z,101351.72
2023-01-22T16:03:17.887Z,101372.53
2023-01-22T16:08:19.276Z,101372.69
2023-01-22T16:13:20.615Z,101384.41
2023-01-22T16:18:22.169Z,101391.97
2023-01-22T16:23:23.517Z,101383.34
2023-01-22T16:28:24.948Z,101376.28
2023-01-22T16:33:29.233Z,101401.66
2023-01-22T16:38:31.495Z,101407.16
2023-01-22T16:43:33.311Z,101413.69
2023-01-22T16:48:34.685Z,101422.97
2023-01-22T16:53:36.009Z,101403.00
2023-01-22T16:58:37.299Z,101411.84
2023-01-22T17:03:39.180Z,101429.09
2023-01-22T17:08:40.597Z,101420.91
2023-01-22T17:13:41.918Z,101442.41
2023-01-22T17:18:43.552Z,101446.78
2023-01-22T17:23:45.204Z,101430.47
2023-01-22T17:28:46.675Z,101445.00
2023-01-22T17:33:48.933Z,101455.44
2023-01-22T17:38:50.859Z,101459.06
2023-01-22T17:43:53.032Z,101455.50
2023-01-22T17:48:55.070Z,101463.06
2023-01-22T17:53:59.235Z,101469.97
2023-01-22T17:59:03.217Z,101474.13
2023-01-22T18:04:10.171Z,101477.59
2023-01-22T18:09:11.992Z,101460.44
2023-01-22T18:14:22.002Z,101479.31
2023-01-22T18:19:24.584Z,101471.66
2023-01-22T18:24:26.794Z,101490.63
2023-01-22T18:29:28.945Z,101454.47
2023-01-22T18:34:30.262Z,101493.53
2023-01-22T18:39:31.731Z,101490.06
2023-01-22T18:44:33.099Z,101506.63
2023-01-22T18:49:34.425Z,101489.41
2023-01-22T18:54:36.288Z,101506.09
2023-01-22T18:59:38.033Z,101501.84
2023-01-22T19:04:39.514Z,101511.47
2023-01-22T19:09:42.893Z,101492.63
2023-01-22T19:14:44.230Z,101494.75
2023-01-22T19:19:45.522Z,101494.16
2023-01-22T19:24:46.888Z,101517.38
2023-01-22T19:29:48.861Z,101523.53
2023-01-22T19:34:50.217Z,101510.00
2023-01-22T19:39:51.691Z,101543.59
2023-01-22T19:44:53.211Z,101541.16
2023-01-22T19:49:54.517Z,101531.44
2023-01-22T19:54:55.939Z,101552.06
2023-01-22T19:59:58.996Z,101541.78
2023-01-22T20:05:00.353Z,101546.09
2023-01-22T20:10:01.781Z,101554.88
2023-01-22T20:15:04.556Z,101566.28
2023-01-22T20:20:06.446Z,101567.25
2023-01-22T20:25:09.046Z,101581.81
2023-01-22T20:30:11.482Z,101566.22
2023-01-22T20:35:15.403Z,101570.44
2023-01-22T20:40:17.108Z,101555.78
2023-01-22T20:45:18.876Z,101581.63
2023-01-22T20:50:20.541Z,101564.22
2023-01-22T20:55:21.883Z,101574.81
2023-01-22T21:00:23.929Z,101579.31
2023-01-22T21:05:25.609Z,101580.00
2023-01-22T21:10:26.969Z,101579.09
2023-01-22T21:15:28.672Z,101587.00
2023-01-22T21:20:30.098Z,101598.47
2023-01-22T21:25:34.588Z,101592.25
2023-01-22T21:30:36.133Z,101592.31
2023-01-22T21:35:37.510Z,101574.13
2023-01-22T21:40:38.904Z,101586.94
2023-01-22T21:46:01.367Z,101576.34
2023-01-22T21:51:03.522Z,101589.38
2023-01-22T21:56:05.355Z,101593.06
2023-01-22T22:01:08.022Z,101602.69
2023-01-22T22:06:10.881Z,101592.16
2023-01-22T22:11:13.595Z,101592.34
2023-01-22T22:16:15.286Z,101602.66
2023-01-22T22:21:16.976Z,101582.94
2023-01-22T22:26:18.438Z,101604.03
2023-01-22T22:31:20.584Z,101605.72
2023-01-22T22:36:24.303Z,101604.06
2023-01-22T22:41:28.613Z,101622.59
2023-01-22T22:46:32.778Z,101616.31
2023-01-22T22:51:36.717Z,101609.44
2023-01-22T22:56:38.243Z,101589.44
2023-01-22T23:01:39.687Z,101596.34
2023-01-22T23:06:44.917Z,101621.47
2023-01-22T23:11:47.278Z,101624.28
2023-01-22T23:16:49.408Z,101619.78
2023-01-22T23:21:52.984Z,101610.31
2023-01-22T23:26:55.251Z,101622.59
2023-01-22T23:31:57.560Z,101609.66
2023-01-22T23:36:58.937Z,101620.44
2023-01-22T23:42:00.296Z,101611.72
2023-01-22T23:47:01.663Z,101616.03
2023-01-22T23:52:03.613Z,101622.97
2023-01-22T23:57:04.956Z,101620.22
